New Germany, MN

3:57 AM CDT on July 27, 2016 (GMT -0500)
Mayer, MN | | Change Station

Elev 977 ft 44.89 °N, 93.90 °W | Updated 34 seconds ago

Mostly Cloudy
Mostly Cloudy
77.7 °F
Feels Like 80 °F
N
2.2
Wind Variable Wind from South
Gusts 6.9 mph

Today
High -- | Low -- °F
--% Chance of Precip.
Yesterday
High -- | Low -- °F
Precip. -- in
Pressure 29.98 in
Visibility 10.0 miles
Clouds Mostly Cloudy 12000 ft
Heat Index 80 °F
Dew Point 68 °F
Humidity 73%
Rainfall 0.00 in
Snow Depth Not available.
5:56 AM 8:47 PM
Last Quarter, 45% visible
METAR KGYL 270855Z AUTO 19003KT 10SM BKN120 23/22 A2998 RMK AO2 T02300220
Pressure 29.98 in
Visibility 10.0 miles
Clouds Mostly Cloudy 12000 ft
Heat Index 80 °F
Dew Point 68 °F
Humidity 73%
Rainfall 0.00 in
Snow Depth Not available.
5:56 AM 8:47 PM
Last Quarter, 45% visible
METAR KGYL 270855Z AUTO 19003KT 10SM BKN120 23/22 A2998 RMK AO2 T02300220

10-Day Weather Forecast

Almanac

Astronomy

Jul. 27, 2016 Rise Set
Actual Time
Civil Twilight
Nautical Twilight
Astronomical Twilight
Moon
Length of Visible Light
Length of Day
Tomorrow will be .
, % of the Moon is Illuminated

Today's Extremes

State Highs State Lows

Community

WunderPhotos

Upload Photos

1,927,818 photos uploaded!

WunderBlog® & News

Nearby

Air Quality

  Air Quality AQ Index Pollutant
Not available.

Snow Depth

Station Depth Elevation

Earthquake Activity

City Distance Mag. Time & Date
Minimum magnitude displayed is 2.5.

Coastal Water Temperatures

Place Temperature

Stations

Nearby Weather Stations

Station Location Temp. Windchill Dew Point Humidity Wind Precip. Elev Updated Type
                   

Watches & Warnings

There are currently no watches in effect.